CheckWX is a tool to help pilots better visualize weather data.  It is not intended as a substitute for an official pre-flight weather briefing.

03:42:22 UTC

KAZO METAR
Kalamazoo Battle Creek International Airport
Kalamazoo, Michigan, USA
Current

49 mins ago

KAZO 120253Z AUTO 00000KT 10SM CLR 22/16 A2983 RMK AO2 SLP096 T02170161 51002
Observed
Jul-12 @ 02:53 UTC
Visibility
10 SM
Flight Rules
VFR
Cloud Levels
  • Clear skies
Temperature
22°C / 72°F
Dewpoint
16°C / 61°F
Humidity
69%
Altimeter
29.83" Hg
Pressure
1010.12 hPa
Previous

2 hours ago

KAZO 120153Z 29003KT 10SM CLR 23/15 A2983 RMK AO2 SLP096 T02330150
Observed
Jul-12 @ 01:53 UTC
Wind
  • 290° at 3 KTS
Visibility
10 SM
Flight Rules
VFR
Cloud Levels
  • Clear skies
Temperature
23°C / 73°F
Dewpoint
15°C / 59°F
Humidity
61%
Altimeter
29.83" Hg
Pressure
1010.12 hPa
Previous

3 hours ago

KAZO 120053Z 28006KT 10SM CLR 26/15 A2983 RMK AO2 SLP095 T02560150
Observed
Jul-12 @ 00:53 UTC
Wind
  • 280° at 6 KTS
Visibility
10 SM
Flight Rules
VFR
Cloud Levels
  • Clear skies
Temperature
26°C / 79°F
Dewpoint
15°C / 59°F
Humidity
51%
Altimeter
29.83" Hg
Pressure
1010.12 hPa